Time;durP1;ratioP1;P1;durP2;ratioP2;P2;SDS_P1;SDS_P2;PMS_P1;PMS_P2;Temp;Humidity;BMP_temperature;BMP_pressure;BME280_temperature;BME280_humidity;BME280_pressure;Samples;Min_cycle;Max_cycle;Signal;HPM_P1;HPM_P2
2022/05/30 00:02:14;;;;;;;0.80;0.40;;;;;;;14.95;100.00;99548.16;1756636;79;21638;-50
2022/05/30 00:04:40;;;;;;;1.32;0.40;;;;;;;14.94;100.00;99539.64;1748095;79;21028;-54
2022/05/30 00:07:07;;;;;;;0.50;0.35;;;;;;;14.94;100.00;99543.70;1753431;79;20959;-52
2022/05/30 00:09:35;;;;;;;0.90;0.40;;;;;;;14.93;100.00;99543.33;1759185;79;21073;-50
2022/05/30 00:12:02;;;;;;;4.45;0.40;;;;;;;14.92;100.00;99537.52;1756011;79;21524;-51
2022/05/30 00:14:29;;;;;;;0.50;0.30;;;;;;;14.92;100.00;99538.88;1758835;79;21142;-51
2022/05/30 00:16:56;;;;;;;2.15;0.50;;;;;;;14.90;100.00;99534.04;1752787;79;21423;-52
2022/05/30 00:19:22;;;;;;;2.87;0.50;;;;;;;14.90;100.00;99534.04;1757668;79;21434;-50
2022/05/30 00:21:49;;;;;;;2.70;0.40;;;;;;;14.87;100.00;99530.20;1757247;79;20951;-54
2022/05/30 00:24:15;;;;;;;0.80;0.40;;;;;;;14.87;100.00;99534.76;1754158;80;21041;-50
2022/05/30 00:26:41;;;;;;;1.37;0.42;;;;;;;14.85;100.00;99536.21;1755740;79;21674;-50
2022/05/30 00:29:07;;;;;;;1.47;0.40;;;;;;;14.85;100.00;99533.98;1695745;82;21131;-52
2022/05/30 00:31:35;;;;;;;0.72;0.33;;;;;;;14.84;100.00;99535.83;1749988;79;21726;-50
2022/05/30 00:34:01;;;;;;;3.45;0.40;;;;;;;14.84;100.00;99540.38;1753278;79;21628;-53
2022/05/30 00:36:29;;;;;;;0.60;0.40;;;;;;;14.84;100.00;99537.67;1752295;79;20911;-55
2022/05/30 00:38:57;;;;;;;1.85;0.45;;;;;;;14.81;100.00;99534.67;1695291;82;21935;-50
2022/05/30 00:41:26;;;;;;;0.62;0.40;;;;;;;14.80;100.00;99537.00;1759019;79;21022;-51
2022/05/30 00:43:53;;;;;;;0.98;0.40;;;;;;;14.79;100.00;99528.52;1673798;83;22611;-53
2022/05/30 00:46:19;;;;;;;2.35;0.40;;;;;;;14.76;100.00;99530.07;1753699;80;21119;-55
2022/05/30 00:48:53;;;;;;;1.60;0.40;;;;;;;14.74;100.00;99523.39;1756538;80;21033;-52
2022/05/30 00:51:27;;;;;;;0.70;0.40;;;;;;;14.71;100.00;99507.86;1755500;79;20950;-51
2022/05/30 00:53:54;;;;;;;1.62;0.30;;;;;;;14.71;100.00;99493.83;1751948;79;22449;-52
2022/05/30 00:56:22;;;;;;;1.95;0.40;;;;;;;14.70;100.00;99487.16;1754325;79;21112;-52
2022/05/30 00:58:50;;;;;;;4.08;0.40;;;;;;;14.67;100.00;99469.75;1758924;80;21016;-52
2022/05/30 01:01:18;;;;;;;0.70;0.40;;;;;;;14.67;100.00;99469.75;1753096;79;20938;-51
2022/05/30 01:06:37;;;;;;;1.02;0.50;;;;;;;14.61;100.00;99462.92;1751108;79;20966;-50
2022/05/30 01:09:22;;;;;;;3.10;0.50;;;;;;;14.54;100.00;99452.14;1759188;79;21975;-50
2022/05/30 01:11:59;;;;;;;1.40;0.42;;;;;;;14.50;100.00;99441.61;1757001;80;20973;-54
2022/05/30 01:14:32;;;;;;;2.67;0.60;;;;;;;14.44;100.00;99424.44;1756211;79;20906;-53
2022/05/30 01:16:59;;;;;;;1.12;0.50;;;;;;;14.36;100.00;99426.30;1755269;79;21106;-50
2022/05/30 01:19:55;;;;;;;2.05;0.50;;;;;;;14.36;100.00;99426.30;1756974;79;20903;-51
2022/05/30 01:22:44;;;;;;;4.60;0.42;;;;;;;14.32;100.00;99417.98;1757444;79;20903;-55
2022/05/30 01:25:31;;;;;;;1.67;0.30;;;;;;;14.28;100.00;99416.48;1741107;80;20991;-55
2022/05/30 01:28:29;;;;;;;1.15;0.60;;;;;;;14.26;100.00;99427.41;1755712;79;20966;-54
2022/05/30 01:30:57;;;;;;;3.62;0.50;;;;;;;14.26;100.00;99445.00;1751662;79;21331;-54
2022/05/30 01:33:24;;;;;;;1.40;0.50;;;;;;;14.25;100.00;99440.55;1756209;79;20934;-54
2022/05/30 01:35:50;;;;;;;2.65;0.40;;;;;;;14.25;100.00;99448.67;1758238;79;20914;-54
2022/05/30 01:38:17;;;;;;;1.57;0.50;;;;;;;14.23;100.00;99440.27;1757985;79;20954;-55
2022/05/30 01:40:45;;;;;;;2.60;0.42;;;;;;;14.22;100.00;99438.53;1751146;79;20950;-55
2022/05/30 01:43:12;;;;;;;1.05;0.40;;;;;;;14.20;100.00;99432.38;1755844;79;21098;-55
2022/05/30 01:45:41;;;;;;;0.70;0.50;;;;;;;14.16;100.00;99433.06;1755757;79;20970;-55
2022/05/30 01:48:08;;;;;;;1.00;0.40;;;;;;;14.13;100.00;99433.25;1758122;79;21073;-56
2022/05/30 01:50:35;;;;;;;0.80;0.40;;;;;;;14.10;100.00;99430.77;1698985;82;21115;-54
2022/05/30 01:53:03;;;;;;;0.78;0.50;;;;;;;14.06;100.00;99429.23;1752867;80;21350;-54
2022/05/30 01:55:32;;;;;;;1.35;0.50;;;;;;;14.03;100.00;99427.23;1753276;80;21782;-54
2022/05/30 01:58:02;;;;;;;1.70;0.40;;;;;;;13.99;100.00;99428.78;1752724;79;21085;-55
2022/05/30 02:00:36;;;;;;;1.37;0.55;;;;;;;13.99;100.00;99425.20;1751952;79;21042;-55
2022/05/30 02:03:04;;;;;;;2.13;0.50;;;;;;;13.99;100.00;99424.72;1760745;79;21062;-55
2022/05/30 02:05:33;;;;;;;0.88;0.40;;;;;;;14.01;100.00;99420.09;1698272;82;21423;-55
2022/05/30 02:08:01;;;;;;;1.87;0.40;;;;;;;14.06;100.00;99422.47;1750029;79;21630;-54
2022/05/30 02:10:31;;;;;;;0.60;0.40;;;;;;;14.08;100.00;99413.77;1749010;80;22100;-55
2022/05/30 02:12:59;;;;;;;0.88;0.50;;;;;;;14.11;100.00;99408.16;1753257;79;21113;-55
2022/05/30 02:17:00;;;;;;;0.80;0.50;;;;;;;14.13;100.00;99408.89;1749546;79;21125;-55
2022/05/30 02:17:59;;;;;;;0.82;0.53;;;;;;;14.13;100.00;99408.89;1752845;79;21050;-54
2022/05/30 02:20:26;;;;;;;0.70;0.40;;;;;;;14.13;100.00;99396.71;1752539;80;21134;-54
2022/05/30 02:22:52;;;;;;;1.47;0.50;;;;;;;14.12;100.00;99393.63;1752954;79;21073;-55
2022/05/30 02:25:19;;;;;;;0.80;0.40;;;;;;;14.12;100.00;99391.43;1755124;79;22167;-55
2022/05/30 02:27:45;;;;;;;2.37;0.50;;;;;;;14.12;100.00;99380.61;1704128;82;21075;-54
2022/05/30 02:30:12;;;;;;;0.60;0.40;;;;;;;14.14;100.00;99380.86;1706569;81;21100;-54
2022/05/30 02:32:40;;;;;;;0.85;0.40;;;;;;;14.16;100.00;99373.99;1728994;81;22074;-54
2022/05/30 02:37:52;;;;;;;2.80;0.47;;;;;;;14.21;100.00;99395.70;1726865;81;21055;-54
2022/05/30 02:40:23;;;;;;;0.80;0.40;;;;;;;14.25;100.00;99414.84;1695208;81;21685;-53
2022/05/30 02:42:55;;;;;;;8.40;0.78;;;;;;;14.25;100.00;99410.77;1668631;81;21669;-54
2022/05/30 02:45:22;;;;;;;1.65;0.50;;;;;;;14.26;100.00;99417.06;1725802;81;21541;-55
2022/05/30 02:47:49;;;;;;;1.12;0.50;;;;;;;14.25;100.00;99413.48;1724282;81;21067;-55
2022/05/30 02:50:15;;;;;;;0.50;0.40;;;;;;;14.27;100.00;99402.55;1726851;81;21098;-54
2022/05/30 02:52:42;;;;;;;2.15;0.40;;;;;;;14.29;100.00;99408.73;1726135;81;21585;-54
2022/05/30 02:55:12;;;;;;;1.75;0.68;;;;;;;14.30;100.00;99416.73;1723652;81;21031;-54
2022/05/30 02:57:40;;;;;;;0.75;0.40;;;;;;;14.34;100.00;99411.98;1730434;81;21148;-55
2022/05/30 03:00:08;;;;;;;2.12;0.50;;;;;;;14.40;100.00;99418.35;1726699;81;21125;-55
2022/05/30 03:02:37;;;;;;;0.50;0.40;;;;;;;14.43;100.00;99420.86;1727386;81;21067;-55
2022/05/30 03:05:05;;;;;;;1.30;0.40;;;;;;;14.47;100.00;99434.55;1726951;81;21099;-53
2022/05/30 03:07:31;;;;;;;0.70;0.60;;;;;;;14.49;100.00;99442.58;1699367;83;21099;-55
2022/05/30 03:09:59;;;;;;;0.80;0.60;;;;;;;14.49;100.00;99459.69;1698511;82;21136;-55
2022/05/30 03:12:28;;;;;;;1.95;0.50;;;;;;;14.50;100.00;99452.44;1695908;82;21540;-54
2022/05/30 03:14:55;;;;;;;0.75;0.50;;;;;;;14.49;100.00;99464.24;1696642;83;21083;-54
2022/05/30 03:17:22;;;;;;;1.22;0.40;;;;;;;14.47;100.00;99469.76;1731494;81;21125;-54
2022/05/30 03:19:51;;;;;;;1.82;0.40;;;;;;;14.46;100.00;99472.08;1725412;81;21145;-54
2022/05/30 03:22:18;;;;;;;1.35;0.70;;;;;;;14.47;100.00;99467.53;1695826;82;21080;-54
2022/05/30 03:25:03;;;;;;;0.95;0.53;;;;;;;14.48;100.00;99455.73;1726230;80;21057;-56
2022/05/30 03:27:30;;;;;;;2.25;0.60;;;;;;;14.49;100.00;99441.22;1723863;82;21039;-56
2022/05/30 03:29:56;;;;;;;0.65;0.50;;;;;;;14.51;100.00;99435.22;1715220;82;21541;-56
2022/05/30 03:32:23;;;;;;;1.22;0.65;;;;;;;14.52;100.00;99439.67;1756895;79;21009;-57
2022/05/30 03:34:50;;;;;;;0.80;0.50;;;;;;;14.53;100.00;99437.34;1732395;80;21155;-56
2022/05/30 03:37:17;;;;;;;0.60;0.50;;;;;;;14.53;100.00;99427.86;1756535;79;21039;-57
2022/05/30 03:39:46;;;;;;;0.93;0.50;;;;;;;14.51;100.00;99423.91;1755968;79;21104;-57
2022/05/30 03:42:20;;;;;;;0.65;0.47;;;;;;;14.52;100.00;99405.33;1715772;80;21034;-57
2022/05/30 03:45:00;;;;;;;2.58;0.50;;;;;;;14.53;100.00;99405.72;1759498;80;21122;-56
2022/05/30 03:47:26;;;;;;;1.95;0.50;;;;;;;14.56;100.00;99402.77;1753110;79;21403;-57
2022/05/30 03:50:00;;;;;;;0.60;0.50;;;;;;;14.60;100.00;99383.98;1755339;79;21321;-58
2022/05/30 03:52:27;;;;;;;1.90;0.50;;;;;;;14.66;100.00;99383.55;1749646;79;21101;-54
2022/05/30 03:54:54;;;;;;;3.60;0.60;;;;;;;14.74;100.00;99406.03;1740709;79;21101;-53
2022/05/30 03:57:20;;;;;;;0.95;0.60;;;;;;;14.74;100.00;99406.03;1751148;80;21592;-53
2022/05/30 03:59:47;;;;;;;0.60;0.42;;;;;;;14.77;100.00;99394.98;1757257;79;21156;-54
2022/05/30 04:02:14;;;;;;;1.72;0.50;;;;;;;14.77;100.00;99369.25;1749495;79;21095;-54
2022/05/30 04:04:41;;;;;;;0.53;0.50;;;;;;;14.75;100.00;99373.41;1758246;79;20907;-53
2022/05/30 04:07:08;;;;;;;0.95;0.53;;;;;;;14.72;100.00;99360.56;1754971;79;20954;-53
2022/05/30 04:09:36;;;;;;;2.92;0.40;;;;;;;14.71;100.00;99368.34;1758015;79;21995;-53
2022/05/30 04:12:06;;;;;;;0.78;0.40;;;;;;;14.72;100.00;99373.63;1756590;79;20963;-54
2022/05/30 04:14:59;;;;;;;3.05;0.50;;;;;;;14.74;100.00;99359.48;1754413;79;20876;-52
2022/05/30 04:17:27;;;;;;;1.50;0.50;;;;;;;14.79;100.00;99356.47;1756426;79;21342;-54
2022/05/30 04:19:54;;;;;;;1.75;0.65;;;;;;;14.84;100.00;99352.92;1758535;79;21391;-52
2022/05/30 04:22:21;;;;;;;2.50;0.50;;;;;;;14.86;100.00;99360.46;1754793;79;20948;-54
2022/05/30 04:25:09;;;;;;;1.00;0.57;;;;;;;14.89;100.00;99374.26;1751629;80;22894;-56
2022/05/30 04:27:36;;;;;;;2.20;0.70;;;;;;;14.88;100.00;99382.91;1754081;79;21579;-57
2022/05/30 04:30:07;;;;;;;2.02;0.68;;;;;;;14.87;100.00;99384.36;1750703;79;21050;-56
2022/05/30 04:32:36;;;;;;;5.75;0.78;;;;;;;14.86;100.00;99388.91;1755782;79;20966;-55
2022/05/30 04:35:05;;;;;;;1.10;0.60;;;;;;;14.88;100.00;99393.75;1759305;80;20883;-55
2022/05/30 04:39:49;;;;;;;3.40;0.90;;;;;;;14.96;100.00;99402.67;1782182;78;22462;-54
2022/05/30 04:42:34;;;;;;;2.15;0.60;;;;;;;14.96;100.00;99413.03;1742419;80;21024;-54
2022/05/30 04:45:19;;;;;;;2.25;1.47;;;;;;;15.01;100.00;99415.40;1738146;80;21258;-53
2022/05/30 04:48:06;;;;;;;2.37;0.90;;;;;;;15.02;100.00;99412.58;1657183;84;21185;-55
2022/05/30 04:50:32;;;;;;;6.53;1.22;;;;;;;15.03;100.00;99422.45;1658482;83;20951;-52
2022/05/30 04:53:01;;;;;;;3.95;1.02;;;;;;;15.04;100.00;99443.65;1680034;83;21026;-50
2022/05/30 04:55:35;;;;;;;2.55;0.70;;;;;;;15.02;100.00;99440.17;1690657;82;21029;-53
2022/05/30 04:58:00;;;;;;;4.45;0.80;;;;;;;15.02;100.00;99451.88;1678997;82;22568;-54
2022/05/30 05:00:35;;;;;;;;;;;;;;;15.03;100.00;99482.57;1649939;83;21002;-50
2022/05/30 05:03:02;;;;;;;2.22;0.90;;;;;;;15.04;100.00;99504.15;1674216;83;20189;-50
2022/05/30 05:05:28;;;;;;;2.30;0.70;;;;;;;15.03;100.00;99503.77;1672815;83;21110;-51
2022/05/30 05:08:16;;;;;;;1.50;0.70;;;;;;;15.03;100.00;99492.92;1682287;82;21132;-49
2022/05/30 05:11:21;;;;;;;0.90;0.60;;;;;;;15.03;100.00;99487.50;1678299;82;21694;-52
2022/05/30 05:14:06;;;;;;;1.87;0.60;;;;;;;15.04;100.00;99487.89;1691384;82;21077;-51
2022/05/30 05:16:35;;;;;;;7.60;0.53;;;;;;;15.07;100.00;99500.33;1623727;83;21586;-51
2022/05/30 05:19:03;;;;;;;3.00;0.55;;;;;;;15.08;100.00;99495.30;1691485;82;21028;-51
2022/05/30 05:21:32;;;;;;;0.90;0.80;;;;;;;15.10;100.00;99498.29;1685647;82;21065;-52
2022/05/30 05:23:58;;;;;;;4.00;0.60;;;;;;;15.12;100.00;99507.19;1688975;82;21751;-51
2022/05/30 05:26:27;;;;;;;1.60;0.70;;;;;;;15.13;100.00;99502.63;1685503;82;21073;-51
2022/05/30 05:29:07;;;;;;;0.70;0.70;;;;;;;15.12;100.00;99503.61;1688382;82;21083;-50
2022/05/30 05:31:34;;;;;;;3.58;0.60;;;;;;;15.11;100.00;99497.80;1685032;82;21601;-52
2022/05/30 05:34:05;;;;;;;0.50;0.50;;;;;;;15.09;100.00;99495.19;1658149;84;21515;-51
2022/05/30 05:36:35;;;;;;;0.70;0.65;;;;;;;15.09;100.00;99505.16;1693703;82;21117;-51
2022/05/30 05:39:02;;;;;;;0.85;0.65;;;;;;;15.08;100.00;99512.91;1681891;82;21081;-52
2022/05/30 05:41:42;;;;;;;1.20;0.60;;;;;;;15.07;100.00;99493.07;1675146;83;21057;-52
2022/05/30 05:44:10;;;;;;;1.10;0.57;;;;;;;15.07;100.00;99498.49;1679206;83;21581;-51
2022/05/30 05:46:37;;;;;;;0.53;0.47;;;;;;;15.08;100.00;99502.94;1674817;83;21038;-52
2022/05/30 05:49:08;;;;;;;0.90;0.53;;;;;;;15.09;100.00;99487.55;1675552;83;21100;-51
2022/05/30 05:51:34;;;;;;;1.00;0.50;;;;;;;15.11;100.00;99498.67;1678819;83;21069;-52
2022/05/30 05:54:05;;;;;;;0.65;0.60;;;;;;;15.12;100.00;99473.79;1674742;83;21137;-51
2022/05/30 05:56:31;;;;;;;1.20;0.60;;;;;;;15.12;100.00;99473.79;1688114;82;21018;-51
2022/05/30 05:58:58;;;;;;;1.00;0.50;;;;;;;15.14;100.00;99509.28;1637510;84;21080;-50
2022/05/30 06:01:29;;;;;;;0.80;0.60;;;;;;;15.14;100.00;99509.28;1721134;80;21141;-52
2022/05/30 06:03:58;;;;;;;1.15;0.50;;;;;;;15.12;100.00;99515.32;1719567;80;21033;-53
2022/05/30 06:06:46;;;;;;;1.77;0.40;;;;;;;15.12;100.00;99515.32;1725752;80;21050;-52
2022/05/30 06:09:14;;;;;;;0.80;0.57;;;;;;;15.10;100.00;99509.12;1726707;80;21120;-52
2022/05/30 06:11:48;;;;;;;0.50;0.40;;;;;;;15.10;100.00;99509.12;1719469;80;21057;-51
2022/05/30 06:14:15;;;;;;;0.70;0.70;;;;;;;15.10;100.00;99506.42;1719203;80;21138;-49
2022/05/30 06:16:42;;;;;;;0.65;0.60;;;;;;;15.10;100.00;99491.52;1722563;80;21125;-51
2022/05/30 06:19:12;;;;;;;0.70;0.50;;;;;;;15.10;100.00;99471.66;1716786;80;21784;-53
2022/05/30 06:21:38;;;;;;;1.60;0.50;;;;;;;15.10;100.00;99471.66;1721214;80;21128;-51
2022/05/30 06:24:08;;;;;;;0.72;0.60;;;;;;;15.09;100.00;99461.80;1723189;80;21015;-51
2022/05/30 06:26:52;;;;;;;0.90;0.50;;;;;;;15.08;100.00;99443.30;1647768;85;21257;-50
2022/05/30 06:29:24;;;;;;;0.80;0.60;;;;;;;15.04;100.00;99432.81;1697940;80;21097;-51
2022/05/30 06:31:50;;;;;;;0.60;0.60;;;;;;;15.01;100.00;99420.33;1724020;80;21097;-51
2022/05/30 06:34:18;;;;;;;2.58;0.60;;;;;;;15.02;100.00;99411.23;1716299;80;21041;-51
2022/05/30 06:36:46;;;;;;;0.90;0.60;;;;;;;15.02;100.00;99411.23;1724038;80;21773;-51
2022/05/30 06:39:14;;;;;;;7.47;0.95;;;;;;;15.07;100.00;99395.97;1716442;80;21141;-50
2022/05/30 06:41:50;;;;;;;0.95;0.50;;;;;;;15.08;100.00;99389.09;1723201;81;21034;-51
2022/05/30 06:44:17;;;;;;;1.00;0.50;;;;;;;15.08;100.00;99389.09;1710409;81;21108;-51
2022/05/30 06:47:03;;;;;;;;;;;;;;;15.07;100.00;99386.48;1713286;81;21112;-49
2022/05/30 06:49:41;;;;;;;1.10;0.60;;;;;;;15.05;100.00;99376.27;1658354;84;20281;-51
2022/05/30 06:52:12;;;;;;;5.40;0.65;;;;;;;15.02;100.00;99376.48;1717886;81;21152;-50
2022/05/30 06:54:39;;;;;;;2.00;0.70;;;;;;;15.01;100.00;99370.67;1714250;81;21105;-51
2022/05/30 06:59:46;;;;;;;3.02;0.60;;;;;;;15.00;100.00;99366.23;1695324;81;21101;-49
2022/05/30 07:02:15;;;;;;;2.77;0.60;;;;;;;14.96;100.00;99345.28;1708888;81;21121;-51
2022/05/30 07:05:00;;;;;;;2.05;0.50;;;;;;;14.96;100.00;99343.92;1719608;81;21153;-51
2022/05/30 07:07:46;;;;;;;0.62;0.40;;;;;;;14.89;100.00;99353.94;1683016;83;21117;-51
2022/05/30 07:10:23;;;;;;;6.97;0.50;;;;;;;14.87;100.00;99350.01;1711355;81;22398;-52
2022/05/30 07:12:51;;;;;;;1.57;0.40;;;;;;;14.87;100.00;99350.01;1714674;81;21030;-51
2022/05/30 07:15:18;;;;;;;0.60;0.40;;;;;;;14.83;100.00;99349.83;1716167;81;21073;-52
2022/05/30 07:17:44;;;;;;;0.50;0.40;;;;;;;14.81;100.00;99336.01;1711566;81;21536;-51
2022/05/30 07:20:11;;;;;;;0.42;0.30;;;;;;;14.80;100.00;99343.78;1725079;81;20920;-51
2022/05/30 07:22:40;;;;;;;0.40;0.40;;;;;;;14.79;100.00;99336.63;1716948;81;20873;-49
2022/05/30 07:25:25;;;;;;;0.47;0.30;;;;;;;14.79;100.00;99340.21;1721064;81;20911;-52
2022/05/30 07:28:12;;;;;;;0.42;0.42;;;;;;;14.79;100.00;99329.86;1660507;84;21409;-50
2022/05/30 07:31:04;;;;;;;0.47;0.35;;;;;;;14.74;100.00;99310.72;1718921;81;21895;-51
2022/05/30 07:33:44;;;;;;;0.47;0.42;;;;;;;14.74;100.00;99314.78;1616604;86;21151;-51
2022/05/30 07:36:30;;;;;;;0.57;0.40;;;;;;;14.74;100.00;99313.91;1666049;84;20920;-50
2022/05/30 07:39:18;;;;;;;0.85;0.40;;;;;;;14.78;100.00;99307.80;1721054;81;20892;-51
2022/05/30 07:42:04;;;;;;;0.68;0.40;;;;;;;14.81;100.00;99307.07;1712670;81;20934;-51
2022/05/30 07:44:36;;;;;;;1.45;0.65;;;;;;;14.85;100.00;99323.50;1705449;81;21106;-50
2022/05/30 07:47:07;;;;;;;1.50;0.50;;;;;;;14.85;100.00;99323.50;1718448;81;21468;-50
2022/05/30 07:50:57;;;;;;;0.50;0.47;;;;;;;14.86;100.00;99326.59;1792370;77;22573;-51
2022/05/30 07:53:41;;;;;;;2.35;0.50;;;;;;;14.82;100.00;99345.87;1771379;79;21470;-51
2022/05/30 07:56:18;;;;;;;6.50;0.93;;;;;;;14.78;100.00;99353.86;1767788;79;21199;-51
2022/05/30 07:58:45;;;;;;;0.50;0.47;;;;;;;14.78;100.00;99353.86;1770882;79;22328;-50
2022/05/30 08:01:18;;;;;;;0.42;0.40;;;;;;;14.78;100.00;99361.50;1774244;79;21653;-51
2022/05/30 08:03:46;;;;;;;0.67;0.50;;;;;;;14.76;100.00;99357.55;1767741;78;21594;-52
2022/05/30 08:07:05;;;;;;;1.90;0.50;;;;;;;14.82;100.00;99353.52;1795692;77;22898;-51
2022/05/30 08:09:45;;;;;;;1.47;0.50;;;;;;;14.80;100.00;99351.39;1767557;79;21196;-52
2022/05/30 08:12:13;;;;;;;1.00;0.50;;;;;;;14.83;100.00;99345.77;1770894;78;21597;-52
2022/05/30 08:14:56;;;;;;;0.65;0.45;;;;;;;14.87;100.00;99348.66;1777330;78;21072;-51
2022/05/30 08:17:24;;;;;;;1.07;0.60;;;;;;;14.93;100.00;99337.84;1774611;79;21539;-52
2022/05/30 08:19:53;;;;;;;0.75;0.50;;;;;;;15.00;100.00;99339.13;1769050;79;20954;-51
2022/05/30 08:22:22;;;;;;;1.15;0.50;;;;;;;15.05;100.00;99346.45;1767051;79;20999;-52
2022/05/30 08:24:54;;;;;;;0.57;0.50;;;;;;;15.13;100.00;99356.25;1768799;78;21448;-51
2022/05/30 08:27:20;;;;;;;2.20;0.50;;;;;;;15.13;100.00;99356.25;1770802;78;20961;-51
2022/05/30 08:29:48;;;;;;;1.07;0.60;;;;;;;15.17;100.00;99359.09;1771347;79;20934;-50
2022/05/30 08:32:15;;;;;;;1.42;0.55;;;;;;;15.22;100.00;99356.06;1769153;79;21677;-53
2022/05/30 08:34:59;;;;;;;0.75;0.60;;;;;;;15.23;100.00;99359.98;1770340;79;21116;-51
2022/05/30 08:37:30;;;;;;;1.30;0.60;;;;;;;15.27;100.00;99363.36;1771758;78;21113;-52
2022/05/30 08:42:39;;;;;;;1.70;0.60;;;;;;;15.32;100.00;99362.02;1771987;79;21049;-52
2022/05/30 08:45:16;;;;;;;0.98;0.80;;;;;;;15.34;100.00;99354.66;1768662;79;20977;-52
2022/05/30 08:47:58;;;;;;;0.95;0.55;;;;;;;15.36;100.00;99358.13;1769132;79;21045;-52
2022/05/30 08:51:02;;;;;;;2.02;0.72;;;;;;;15.39;100.00;99355.69;1767912;79;21141;-52
2022/05/30 08:54:06;;;;;;;0.80;0.70;;;;;;;15.43;100.00;99349.03;1746844;79;21310;-52
2022/05/30 08:56:40;;;;;;;0.93;0.60;;;;;;;15.52;100.00;99340.22;1771142;78;21066;-52
2022/05/30 08:59:56;;;;;;;0.70;0.60;;;;;;;15.60;100.00;99352.74;1685951;82;21596;-51
2022/05/30 09:02:31;;;;;;;0.85;0.70;;;;;;;15.66;100.00;99356.83;1709209;81;21401;-51
2022/05/30 09:05:11;;;;;;;1.42;0.93;;;;;;;15.72;100.00;99354.55;1708203;82;21760;-50
2022/05/30 09:07:49;;;;;;;2.40;0.90;;;;;;;15.79;100.00;99350.38;1672270;83;21116;-51
2022/05/30 09:10:30;;;;;;;2.17;1.00;;;;;;;15.86;100.00;99339.92;1732127;80;21125;-51
2022/05/30 09:13:17;;;;;;;3.83;1.10;;;;;;;15.93;100.00;99333.52;1715281;82;21577;-52
2022/05/30 09:16:28;;;;;;;2.45;0.90;;;;;;;16.00;100.00;99350.57;1731149;80;21565;-53
2022/05/30 09:18:55;;;;;;;1.85;1.15;;;;;;;16.11;100.00;99346.55;1732621;80;21255;-52
2022/05/30 09:21:22;;;;;;;2.85;0.90;;;;;;;16.20;100.00;99344.48;1732331;80;21013;-52
2022/05/30 09:23:49;;;;;;;2.70;1.50;;;;;;;16.31;100.00;99348.22;1693406;82;21112;-53
2022/05/30 09:26:22;;;;;;;2.77;1.10;;;;;;;16.42;100.00;99346.86;1709407;82;21034;-52
2022/05/30 09:28:54;;;;;;;1.20;0.80;;;;;;;16.54;100.00;99345.42;1732959;81;21018;-53
2022/05/30 09:31:49;;;;;;;1.72;0.90;;;;;;;16.71;100.00;99340.53;1676273;82;21491;-52
2022/05/30 09:34:36;;;;;;;1.87;1.05;;;;;;;16.82;100.00;99339.19;1733862;81;21530;-53
2022/05/30 09:37:27;;;;;;;1.40;1.22;;;;;;;16.90;100.00;99330.78;1731943;81;21025;-53
2022/05/30 09:40:13;;;;;;;1.82;1.00;;;;;;;16.97;100.00;99323.85;1729494;80;21308;-54
2022/05/30 09:42:57;;;;;;;2.70;1.20;;;;;;;17.05;100.00;99327.30;1731782;80;20923;-53
2022/05/30 09:45:28;;;;;;;2.52;1.30;;;;;;;17.11;100.00;99319.12;1730536;80;21308;-53
2022/05/30 09:48:14;;;;;;;1.62;1.50;;;;;;;17.18;100.00;99321.75;1730897;80;22080;-53
2022/05/30 09:50:50;;;;;;;1.95;1.57;;;;;;;17.24;100.00;99322.09;1732019;80;21085;-53
2022/05/30 09:53:45;;;;;;;3.60;1.35;;;;;;;17.30;100.00;99323.44;1699900;82;21125;-53
2022/05/30 09:56:16;;;;;;;1.65;1.45;;;;;;;17.34;100.00;99324.44;1642508;85;22251;-53
2022/05/30 09:58:55;;;;;;;7.37;1.60;;;;;;;17.38;100.00;99327.25;1694063;81;21121;-53
2022/05/30 10:01:25;;;;;;;3.67;1.67;;;;;;;17.39;100.00;99318.10;1729691;80;21013;-53
2022/05/30 10:03:56;;;;;;;3.27;1.77;;;;;;;17.38;100.00;99316.37;1708670;81;21073;-53
2022/05/30 10:06:25;;;;;;;2.65;1.55;;;;;;;17.40;100.00;99298.56;1735827;80;21435;-55
2022/05/30 10:09:13;;;;;;;2.17;1.17;;;;;;;17.40;100.00;99314.39;1703029;82;21669;-53
2022/05/30 10:11:43;;;;;;;2.72;1.42;;;;;;;17.44;100.00;99303.27;1732295;80;20945;-53
2022/05/30 10:14:20;;;;;;;4.70;1.85;;;;;;;17.48;100.00;99300.64;1735212;81;21061;-52
2022/05/30 10:16:58;;;;;;;3.50;1.32;;;;;;;17.50;100.00;99308.19;1730469;81;21625;-54
2022/05/30 10:19:31;;;;;;;2.37;1.52;;;;;;;17.51;100.00;99302.63;1730550;80;21085;-53
2022/05/30 10:28:51;;;;;;;4.10;2.02;;;;;;;17.63;100.00;99300.25;1606400;86;22633;-54
2022/05/30 10:32:09;;;;;;;2.83;2.27;;;;;;;17.63;100.00;99285.27;1606213;86;21259;-54
2022/05/30 10:35:21;;;;;;;1.98;1.70;;;;;;;17.61;100.00;99293.16;1705416;80;22058;-52
2022/05/30 10:38:29;;;;;;;3.08;1.45;;;;;;;17.57;100.00;99289.85;1731750;80;20997;-52
2022/05/30 10:41:11;;;;;;;7.40;3.15;;;;;;;17.55;100.00;99285.03;1703717;81;21299;-53
2022/05/30 10:43:49;;;;;;;3.25;1.35;;;;;;;17.57;100.00;99288.49;1733816;80;21093;-53
2022/05/30 10:46:28;;;;;;;3.55;1.30;;;;;;;17.60;100.00;99277.36;1739889;80;20878;-52
2022/05/30 10:49:11;;;;;;;2.12;1.50;;;;;;;17.63;100.00;99280.33;1735305;81;20938;-53
2022/05/30 10:52:18;;;;;;;1.72;1.60;;;;;;;17.69;100.00;99271.67;1739049;80;20960;-53
2022/05/30 10:54:57;;;;;;;3.92;1.65;;;;;;;17.74;100.00;99268.91;1739757;80;21056;-54
2022/05/30 10:57:46;;;;;;;1.70;1.20;;;;;;;17.83;100.00;99275.92;1732405;81;20952;-53
2022/05/30 11:00:16;;;;;;;3.08;1.57;;;;;;;17.87;100.00;99270.06;1699747;82;20926;-52
2022/05/30 11:03:08;;;;;;;4.55;1.98;;;;;;;17.94;100.00;99267.70;1682115;83;21528;-53
2022/05/30 11:06:06;;;;;;;1.85;1.20;;;;;;;17.99;100.00;99258.13;1728763;80;20918;-53
2022/05/30 11:08:48;;;;;;;2.58;1.87;;;;;;;18.05;100.00;99259.45;1737125;82;21248;-52
2022/05/30 11:11:55;;;;;;;6.95;1.52;;;;;;;18.07;100.00;99267.00;1732935;80;21876;-52
2022/05/30 11:14:58;;;;;;;1.77;1.10;;;;;;;18.04;100.00;99274.92;1683319;83;20936;-52
2022/05/30 11:18:10;;;;;;;1.65;1.30;;;;;;;17.97;100.00;99276.45;1735628;81;20918;-52
2022/05/30 11:21:04;;;;;;;1.65;1.42;;;;;;;17.92;100.00;99281.45;1687598;81;20991;-53
2022/05/30 11:23:32;;;;;;;4.53;1.60;;;;;;;17.91;100.00;99277.00;1734600;81;21233;-52
2022/05/30 11:26:29;;;;;;;1.40;1.30;;;;;;;17.88;100.00;99277.25;1733856;80;21106;-52
2022/05/30 11:29:41;;;;;;;2.55;1.17;;;;;;;17.87;100.00;99276.01;1737891;80;20962;-53
2022/05/30 11:32:34;;;;;;;3.58;1.60;;;;;;;17.88;100.00;99261.41;1730377;80;21085;-53
2022/05/30 11:35:21;;;;;;;2.45;1.50;;;;;;;17.88;100.00;99269.08;1735366;80;21621;-52
2022/05/30 11:38:20;;;;;;;3.27;1.42;;;;;;;17.91;100.00;99263.88;1731724;80;21763;-53
2022/05/30 11:40:52;;;;;;;2.52;1.40;;;;;;;17.91;100.00;99266.10;1735564;81;21060;-55
2022/05/30 11:43:41;;;;;;;3.27;1.50;;;;;;;17.96;100.00;99268.41;1697525;82;22203;-53
2022/05/30 11:46:19;;;;;;;3.25;1.37;;;;;;;18.01;100.00;99260.73;1730867;81;21075;-52
2022/05/30 11:48:59;;;;;;;3.45;1.32;;;;;;;18.05;100.00;99258.95;1732279;81;21105;-53
2022/05/30 11:52:17;;;;;;;2.35;1.32;;;;;;;18.11;100.00;99252.13;1733227;82;22252;-54
2022/05/30 11:55:17;;;;;;;1.80;1.42;;;;;;;18.17;100.00;99254.31;1730446;80;21060;-53
2022/05/30 11:58:12;;;;;;;3.05;1.15;;;;;;;18.21;100.00;99259.84;1731698;81;21040;-53
2022/05/30 12:00:47;;;;;;;;;;;;;;;18.26;100.00;99262.19;1702029;82;21074;-53
2022/05/30 12:03:47;;;;;;;5.22;1.30;;;;;;;18.30;100.00;99254.09;1665842;84;20215;-54
2022/05/30 12:06:32;;;;;;;2.05;1.30;;;;;;;18.35;100.00;99255.43;1735456;80;21819;-52
2022/05/30 12:09:40;;;;;;;2.77;1.12;;;;;;;18.43;100.00;99259.70;1739277;80;21523;-54
2022/05/30 12:12:52;;;;;;;3.22;1.52;;;;;;;18.51;100.00;99256.30;1739403;80;21517;-53
2022/05/30 12:15:55;;;;;;;3.25;1.30;;;;;;;18.60;100.00;99254.16;1732565;80;21017;-54
2022/05/30 12:24:24;;;;;;;3.83;0.90;;;;;;;18.84;100.00;99266.95;1740731;80;22156;-53
2022/05/30 12:26:59;;;;;;;1.52;0.90;;;;;;;18.88;100.00;99249.29;1741554;80;21038;-54
2022/05/30 12:29:46;;;;;;;1.45;0.93;;;;;;;18.93;100.00;99255.71;1736911;80;21012;-54
2022/05/30 12:32:32;;;;;;;2.47;0.90;;;;;;;18.98;100.00;99258.88;1741885;80;21017;-52
2022/05/30 12:38:00;;;;;;;2.27;1.10;;;;;;;19.05;100.00;99265.52;1741911;80;21058;-54